Time;durP1;ratioP1;P1;durP2;ratioP2;P2;SDS_P1;SDS_P2;PMS_P1;PMS_P2;Temp;Humidity;BMP_temperature;BMP_pressure;BME280_temperature;BME280_humidity;BME280_pressure;Samples;Min_cycle;Max_cycle;Signal;HPM_P1;HPM_P2
2021/06/19 04:02:11;;;;;;;66.03;60.13;;;24.00;99.90;;;;;;5159964;23;20492;-68
2021/06/19 04:04:38;;;;;;;63.13;57.57;;;24.10;99.90;;;;;;4940739;29;20858;-68
2021/06/19 04:07:04;;;;;;;60.00;54.80;;;24.10;99.90;;;;;;4942521;28;20470;-68
2021/06/19 04:09:31;;;;;;;58.50;53.47;;;24.20;99.90;;;;;;4937291;29;20986;-68
2021/06/19 04:11:58;;;;;;;54.23;49.63;;;24.30;99.90;;;;;;4935485;29;20486;-68
2021/06/19 04:14:24;;;;;;;50.90;46.30;;;24.30;99.90;;;;;;4935892;28;20470;-68
2021/06/19 04:16:51;;;;;;;45.97;42.23;;;24.50;99.90;;;;;;4938212;29;20458;-68
2021/06/19 04:19:19;;;;;;;44.20;40.70;;;24.50;99.90;;;;;;4932978;29;20474;-68
2021/06/19 04:21:46;;;;;;;44.33;40.77;;;24.60;99.90;;;;;;4935288;29;20489;-68
2021/06/19 04:24:13;;;;;;;42.80;39.80;;;24.80;99.90;;;;;;4935548;29;20981;-67
2021/06/19 04:26:40;;;;;;;40.40;37.50;;;25.30;99.90;;;;;;4935093;28;20493;-67
2021/06/19 04:29:06;;;;;;;41.13;38.03;;;25.80;99.90;;;;;;4936063;29;20465;-68
2021/06/19 04:31:33;;;;;;;38.87;36.00;;;26.30;99.90;;;;;;4935768;29;20485;-68
2021/06/19 04:34:00;;;;;;;36.07;33.67;;;26.80;99.90;;;;;;4935505;29;20474;-67
2021/06/19 04:36:28;;;;;;;38.53;35.73;;;27.20;99.90;;;;;;4935065;28;20845;-70
2021/06/19 04:38:55;;;;;;;37.70;35.10;;;27.40;99.90;;;;;;4935578;29;20473;-67
2021/06/19 04:41:26;;;;;;;37.63;34.83;;;27.50;99.90;;;;;;4935739;29;20492;-67
2021/06/19 04:44:07;;;;;;;37.43;35.03;;;27.70;99.90;;;;;;4934871;29;20466;-67
2021/06/19 04:46:34;;;;;;;38.50;35.60;;;27.70;99.90;;;;;;4935599;29;20491;-68
2021/06/19 04:49:02;;;;;;;36.80;34.40;;;27.70;99.90;;;;;;4935815;29;20465;-67
2021/06/19 04:51:30;;;;;;;38.83;35.97;;;27.70;99.90;;;;;;4935068;29;20501;-68
2021/06/19 04:53:57;;;;;;;37.73;35.10;;;27.50;99.90;;;;;;4935016;29;20468;-67
2021/06/19 04:56:24;;;;;;;39.13;36.23;;;27.20;99.90;;;;;;4935570;29;20480;-67
2021/06/19 04:58:50;;;;;;;39.00;36.37;;;27.00;99.90;;;;;;4935217;29;20475;-67
2021/06/19 05:01:17;;;;;;;38.10;35.20;;;26.80;99.90;;;;;;4934975;28;20510;-67
2021/06/19 05:03:44;;;;;;;39.57;36.70;;;26.80;99.90;;;;;;4935046;29;20465;-67
2021/06/19 05:06:10;;;;;;;37.93;35.37;;;26.80;99.90;;;;;;4935309;29;20481;-67
2021/06/19 05:08:40;;;;;;;39.33;36.43;;;26.90;99.90;;;;;;4930029;29;20578;-67
2021/06/19 05:11:07;;;;;;;37.10;34.50;;;26.90;99.90;;;;;;4934883;28;20506;-67
2021/06/19 05:13:33;;;;;;;37.10;34.60;;;27.00;99.90;;;;;;4934757;29;20485;-70
2021/06/19 05:16:00;;;;;;;36.50;33.90;;;27.00;99.90;;;;;;4935511;29;20482;-70
2021/06/19 05:18:26;;;;;;;35.10;32.50;;;27.20;99.90;;;;;;4934976;29;20963;-70
2021/06/19 05:20:55;;;;;;;34.03;31.70;;;27.50;99.90;;;;;;4935163;29;20792;-70
2021/06/19 05:23:22;;;;;;;33.33;31.00;;;27.70;99.90;;;;;;4934000;29;20475;-70
2021/06/19 05:25:50;;;;;;;35.30;32.70;;;27.80;99.90;;;;;;4934557;29;20828;-70
2021/06/19 05:28:17;;;;;;;32.23;30.13;;;27.70;99.90;;;;;;4935312;29;20473;-68
2021/06/19 05:30:43;;;;;;;34.07;31.53;;;27.40;99.90;;;;;;4934622;28;20896;-67
2021/06/19 05:33:10;;;;;;;34.57;32.07;;;27.10;99.90;;;;;;4934441;29;20474;-68
2021/06/19 05:35:37;;;;;;;35.13;32.73;;;26.90;99.90;;;;;;4935193;29;20456;-67
2021/06/19 05:38:03;;;;;;;33.70;31.30;;;26.70;99.90;;;;;;4934473;29;20465;-68
2021/06/19 05:40:30;;;;;;;34.50;32.00;;;26.70;99.90;;;;;;4934545;29;20489;-68
2021/06/19 05:42:58;;;;;;;32.23;30.07;;;27.00;99.90;;;;;;4940098;28;20471;-67
2021/06/19 05:45:25;;;;;;;32.70;30.20;;;27.60;99.90;;;;;;4941135;29;20468;-67
2021/06/19 05:47:51;;;;;;;31.60;29.30;;;28.20;99.90;;;;;;4940932;29;20459;-67
2021/06/19 05:50:19;;;;;;;30.27;27.90;;;28.80;99.90;;;;;;4941434;29;20564;-67
2021/06/19 05:52:45;;;;;;;28.07;26.37;;;29.40;99.90;;;;;;4939463;28;20475;-68
2021/06/19 05:55:12;;;;;;;27.70;25.90;;;30.00;99.90;;;;;;4941154;29;20948;-67
2021/06/19 05:57:39;;;;;;;26.07;24.53;;;30.60;99.90;;;;;;4934179;29;20490;-66
2021/06/19 06:00:09;;;;;;;24.50;23.13;;;30.90;99.90;;;;;;4941306;29;20469;-67
2021/06/19 06:02:35;;;;;;;23.07;21.47;;;31.20;99.90;;;;;;4940801;29;20471;-68
2021/06/19 06:05:02;;;;;;;24.13;22.57;;;31.30;99.90;;;;;;4940395;28;20481;-68
2021/06/19 06:07:29;;;;;;;21.73;20.33;;;31.70;99.90;;;;;;4939621;29;20606;-68
2021/06/19 06:09:55;;;;;;;22.00;20.70;;;32.10;99.90;;;;;;4940559;29;20490;-67
2021/06/19 06:12:22;;;;;;;20.50;19.20;;;32.30;99.90;;;;;;4940240;29;20514;-67
2021/06/19 06:14:49;;;;;;;18.63;17.53;;;32.30;99.90;;;;;;4941001;29;21070;-67
2021/06/19 06:17:17;;;;;;;17.60;16.53;;;32.50;99.90;;;;;;4940332;28;20472;-67
2021/06/19 06:19:43;;;;;;;15.80;14.90;;;32.60;99.90;;;;;;4940870;29;20801;-67
2021/06/19 06:22:10;;;;;;;16.13;15.23;;;32.70;99.90;;;;;;4939929;29;20844;-69
2021/06/19 06:24:37;;;;;;;16.37;15.27;;;32.40;99.90;;;;;;4940734;29;20467;-68
2021/06/19 06:27:04;;;;;;;17.33;16.33;;;32.20;99.90;;;;;;4940392;28;20527;-69
2021/06/19 06:29:31;;;;;;;16.50;15.40;;;32.00;99.90;;;;;;4939117;29;20476;-70
2021/06/19 06:31:58;;;;;;;14.77;13.97;;;31.90;99.90;;;;;;4940831;29;20495;-68
2021/06/19 06:34:26;;;;;;;16.97;14.00;;;32.10;99.90;;;;;;4940188;29;20484;-69
2021/06/19 06:36:53;;;;;;;15.07;13.70;;;32.40;99.90;;;;;;4939311;29;20977;-69
2021/06/19 06:39:21;;;;;;;14.83;13.70;;;32.40;99.90;;;;;;4940597;28;20869;-71
2021/06/19 06:41:47;;;;;;;14.50;13.43;;;32.30;99.90;;;;;;4940671;29;20493;-69
2021/06/19 06:44:14;;;;;;;14.30;13.27;;;31.80;99.90;;;;;;4940761;29;20947;-70
2021/06/19 06:46:41;;;;;;;14.70;13.60;;;31.30;99.90;;;;;;4939843;29;20825;-70
2021/06/19 06:49:08;;;;;;;13.77;12.87;;;31.40;99.90;;;;;;4940791;29;20971;-70
2021/06/19 06:51:37;;;;;;;13.63;12.83;;;31.70;99.90;;;;;;4939456;29;20495;-69
2021/06/19 06:54:05;;;;;;;13.33;12.60;;;31.90;99.90;;;;;;4938277;29;20567;-70
2021/06/19 06:56:32;;;;;;;13.10;12.23;;;31.60;99.90;;;;;;4937859;29;20460;-70
2021/06/19 06:58:58;;;;;;;12.00;11.27;;;31.70;99.90;;;;;;4937469;29;20472;-70
2021/06/19 07:01:27;;;;;;;11.40;10.40;;;32.20;99.90;;;;;;4937451;29;20587;-70
2021/06/19 07:03:55;;;;;;;11.13;10.23;;;32.50;99.90;;;;;;4935610;29;20572;-70
2021/06/19 07:06:22;;;;;;;10.93;10.40;;;32.50;99.90;;;;;;4918591;29;20597;-70
2021/06/19 07:08:50;;;;;;;10.67;10.07;;;33.00;99.90;;;;;;4923256;29;20470;-71
2021/06/19 07:11:17;;;;;;;9.77;9.00;;;33.40;99.90;;;;;;4937008;29;20513;-70
2021/06/19 07:13:44;;;;;;;9.23;8.63;;;33.30;99.90;;;;;;4938715;29;20468;-67
2021/06/19 07:16:11;;;;;;;8.47;8.17;;;33.60;99.90;;;;;;4937433;29;20458;-67
2021/06/19 07:18:37;;;;;;;9.20;8.80;;;34.20;99.90;;;;;;4933839;29;20473;-67
2021/06/19 07:21:05;;;;;;;8.87;8.10;;;34.50;99.70;;;;;;4930129;28;20490;-67
2021/06/19 07:23:31;;;;;;;8.47;8.07;;;34.70;98.90;;;;;;4935872;29;20816;-67
2021/06/19 07:26:00;;;;;;;8.57;7.90;;;34.70;98.50;;;;;;4925576;29;20458;-67
2021/06/19 07:28:28;;;;;;;7.83;7.27;;;34.90;96.90;;;;;;4936918;29;20474;-67
2021/06/19 07:30:55;;;;;;;6.60;6.40;;;34.90;96.70;;;;;;4936739;29;20532;-67
2021/06/19 07:33:22;;;;;;;7.53;7.07;;;34.90;96.20;;;;;;4936601;29;20458;-67
2021/06/19 07:35:48;;;;;;;8.07;7.40;;;35.10;95.50;;;;;;4936800;29;20496;-67
2021/06/19 07:38:15;;;;;;;7.27;6.77;;;35.20;95.40;;;;;;4933114;29;20508;-66
2021/06/19 07:40:42;;;;;;;7.70;7.40;;;35.30;94.70;;;;;;4937064;29;20592;-66
2021/06/19 07:43:10;;;;;;;7.70;7.50;;;35.50;95.20;;;;;;4936185;29;20557;-67
2021/06/19 07:45:37;;;;;;;6.67;6.37;;;35.60;94.20;;;;;;4936617;29;20462;-67
2021/06/19 07:48:04;;;;;;;6.20;6.00;;;35.50;93.50;;;;;;4931694;29;20462;-67
2021/06/19 07:50:31;;;;;;;5.70;5.60;;;35.20;92.70;;;;;;4917663;29;20486;-66
2021/06/19 07:52:57;;;;;;;5.50;5.30;;;34.90;92.60;;;;;;4916693;29;20470;-66
2021/06/19 07:55:24;;;;;;;6.00;5.70;;;35.00;92.70;;;;;;4939437;29;20472;-67
2021/06/19 07:57:51;;;;;;;5.10;4.90;;;34.90;92.20;;;;;;4925601;29;20503;-68
2021/06/19 08:00:23;;;;;;;4.77;4.57;;;35.00;91.70;;;;;;4920441;29;20466;-71
2021/06/19 08:02:49;;;;;;;4.93;4.80;;;34.80;92.30;;;;;;4936722;29;20462;-69
2021/06/19 08:05:16;;;;;;;5.57;5.37;;;35.00;92.20;;;;;;4936007;29;20465;-70
2021/06/19 08:07:43;;;;;;;5.60;5.00;;;34.80;91.90;;;;;;4935859;29;20545;-71
2021/06/19 08:10:11;;;;;;;6.40;5.20;;;34.80;92.10;;;;;;4936420;29;20541;-69
2021/06/19 08:12:38;;;;;;;4.67;4.47;;;34.70;92.00;;;;;;4935327;28;20478;-69
2021/06/19 08:15:06;;;;;;;4.77;4.57;;;34.70;91.90;;;;;;4937047;29;20517;-69
2021/06/19 08:17:34;;;;;;;5.30;4.90;;;34.70;91.90;;;;;;4936188;29;20489;-70
2021/06/19 08:20:01;;;;;;;4.57;4.47;;;34.70;91.60;;;;;;4936154;29;20470;-70
2021/06/19 08:22:27;;;;;;;4.10;4.10;;;34.80;92.00;;;;;;4934657;28;20878;-70
2021/06/19 08:24:54;;;;;;;4.20;4.10;;;34.80;91.10;;;;;;4935766;29;20462;-70
2021/06/19 08:27:25;;;;;;;4.00;3.90;;;34.70;90.80;;;;;;4936198;29;20465;-70
2021/06/19 08:29:51;;;;;;;3.50;3.40;;;34.70;90.90;;;;;;4934908;29;20972;-70
2021/06/19 08:32:18;;;;;;;3.80;3.50;;;34.80;90.40;;;;;;4935770;29;21010;-70
2021/06/19 08:34:47;;;;;;;3.23;3.10;;;34.90;90.30;;;;;;4935770;28;20477;-70
2021/06/19 08:37:14;;;;;;;3.63;3.43;;;34.50;90.20;;;;;;4935074;29;20493;-69
2021/06/19 08:39:42;;;;;;;3.87;3.77;;;34.20;90.40;;;;;;4935816;29;20469;-69
2021/06/19 08:42:09;;;;;;;3.57;3.30;;;34.30;90.40;;;;;;4935352;29;20489;-68
2021/06/19 08:44:36;;;;;;;3.40;3.20;;;34.30;90.40;;;;;;4935122;29;20474;-68
2021/06/19 08:47:03;;;;;;;3.47;3.37;;;34.30;90.20;;;;;;4935776;29;20561;-69
2021/06/19 08:49:30;;;;;;;3.80;3.60;;;34.10;90.70;;;;;;4935336;29;20473;-66
2021/06/19 08:51:59;;;;;;;3.43;3.43;;;33.90;91.00;;;;;;4933378;29;20481;-72
2021/06/19 08:54:27;;;;;;;3.40;3.20;;;33.80;91.20;;;;;;4934849;28;20492;-67
2021/06/19 08:56:54;;;;;;;4.03;3.77;;;33.80;90.90;;;;;;4935317;29;20486;-66
2021/06/19 08:59:21;;;;;;;3.93;3.63;;;33.80;90.60;;;;;;4935144;29;20461;-66
2021/06/19 09:01:48;;;;;;;3.33;3.23;;;33.70;90.90;;;;;;4934835;29;20890;-65
2021/06/19 09:04:15;;;;;;;3.43;3.40;;;33.60;90.90;;;;;;4934628;29;20465;-66
2021/06/19 09:06:43;;;;;;;2.80;2.80;;;33.60;90.70;;;;;;4929862;29;20473;-65
2021/06/19 09:09:14;;;;;;;3.20;3.10;;;33.50;90.40;;;;;;4935382;29;20919;-65
2021/06/19 09:11:42;;;;;;;3.80;3.57;;;33.70;90.40;;;;;;4935026;29;20490;-65
2021/06/19 09:14:11;;;;;;;3.10;3.00;;;33.60;90.60;;;;;;4934891;29;20473;-65
2021/06/19 09:16:39;;;;;;;3.43;3.33;;;33.40;90.90;;;;;;4933657;29;20524;-66
2021/06/19 09:19:24;;;;;;;3.57;3.47;;;33.30;90.70;;;;;;4933879;29;20470;-66
2021/06/19 09:22:09;;;;;;;2.67;2.57;;;33.00;91.10;;;;;;4915031;29;20506;-66
2021/06/19 09:24:49;;;;;;;2.83;2.83;;;33.30;90.60;;;;;;4915892;29;20862;-66
2021/06/19 09:27:33;;;;;;;2.23;2.23;;;33.50;90.30;;;;;;4915706;29;20537;-67
2021/06/19 09:30:12;;;;;;;2.43;2.33;;;33.50;88.90;;;;;;4916271;29;20518;-66
2021/06/19 09:32:43;;;;;;;2.60;2.50;;;33.30;89.30;;;;;;4916077;29;20474;-66
2021/06/19 09:35:12;;;;;;;3.10;3.00;;;33.10;89.30;;;;;;4916120;29;20462;-66
2021/06/19 09:37:39;;;;;;;2.97;2.77;;;32.80;89.90;;;;;;4914710;29;20856;-69
2021/06/19 09:40:23;;;;;;;3.20;3.10;;;32.60;90.40;;;;;;4915937;29;20583;-68
2021/06/19 09:42:51;;;;;;;2.47;2.47;;;32.50;90.10;;;;;;4915756;29;20834;-69
2021/06/19 09:45:19;;;;;;;2.93;2.20;;;32.50;90.30;;;;;;4916006;29;20462;-69
2021/06/19 09:47:46;;;;;;;2.10;2.00;;;32.60;89.20;;;;;;4915918;29;20565;-68
2021/06/19 09:50:13;;;;;;;2.43;2.43;;;32.50;88.20;;;;;;4916183;29;20602;-68
2021/06/19 09:52:39;;;;;;;2.57;2.40;;;32.40;88.60;;;;;;4915407;29;20477;-69
2021/06/19 09:55:13;;;;;;;1.90;1.80;;;32.30;89.80;;;;;;4916434;29;20464;-69
2021/06/19 09:57:41;;;;;;;2.27;2.27;;;32.10;88.30;;;;;;4916000;29;20484;-69
2021/06/19 10:00:10;;;;;;;2.30;2.20;;;31.80;89.00;;;;;;4916156;29;20537;-69
2021/06/19 10:02:37;;;;;;;1.70;1.70;;;31.70;89.20;;;;;;4914778;29;20503;-69
2021/06/19 10:05:04;;;;;;;2.57;2.53;;;31.70;89.30;;;;;;4915792;29;20524;-68
2021/06/19 10:07:32;;;;;;;1.90;1.90;;;31.50;89.40;;;;;;4915695;29;20462;-68
2021/06/19 10:10:08;;;;;;;2.60;2.60;;;31.50;90.30;;;;;;4916648;29;20500;-67
2021/06/19 10:12:39;;;;;;;3.07;2.97;;;31.50;90.60;;;;;;4916974;29;20567;-69
2021/06/19 10:15:08;;;;;;;2.67;2.67;;;31.50;90.90;;;;;;4917237;29;20483;-70
2021/06/19 10:17:37;;;;;;;2.70;2.60;;;31.50;90.80;;;;;;4916802;29;20480;-69
2021/06/19 10:20:07;;;;;;;2.80;2.70;;;31.50;90.50;;;;;;4917028;29;20467;-69
2021/06/19 10:22:35;;;;;;;2.83;2.83;;;31.50;90.20;;;;;;4915686;29;20538;-68
2021/06/19 10:25:06;;;;;;;2.90;2.80;;;31.50;90.80;;;;;;4916688;29;20503;-69
2021/06/19 10:27:33;;;;;;;2.93;2.90;;;31.50;90.80;;;;;;4916322;29;20818;-69
2021/06/19 10:30:02;;;;;;;3.00;2.90;;;31.40;91.40;;;;;;4929654;29;20495;-69
2021/06/19 10:32:43;;;;;;;3.53;3.03;;;31.50;91.50;;;;;;4946835;29;20508;-68
2021/06/19 10:35:12;;;;;;;3.23;3.23;;;31.40;91.40;;;;;;4939191;29;20466;-68
2021/06/19 10:37:39;;;;;;;3.30;3.20;;;31.30;91.30;;;;;;4943820;28;20625;-68
2021/06/19 10:40:21;;;;;;;2.70;2.70;;;31.20;91.70;;;;;;4943546;29;20464;-66
2021/06/19 10:42:49;;;;;;;5.03;3.03;;;31.40;92.00;;;;;;4940128;29;20490;-67
2021/06/19 10:45:22;;;;;;;3.07;2.97;;;31.40;91.40;;;;;;4940223;29;20473;-66
2021/06/19 10:48:07;;;;;;;3.53;3.33;;;31.30;91.60;;;;;;4939379;29;20476;-67
2021/06/19 10:50:35;;;;;;;2.97;2.97;;;31.30;91.90;;;;;;4938800;29;20830;-67
2021/06/19 10:53:07;;;;;;;3.67;3.43;;;31.20;91.90;;;;;;4936928;29;20976;-66
2021/06/19 10:55:35;;;;;;;3.23;3.03;;;31.20;92.10;;;;;;4938387;29;20473;-67
2021/06/19 10:58:17;;;;;;;3.30;3.20;;;31.20;92.30;;;;;;4937748;29;20496;-67
2021/06/19 11:00:48;;;;;;;3.50;3.30;;;31.20;91.80;;;;;;4937702;29;20890;-66
2021/06/19 11:03:17;;;;;;;3.77;3.67;;;31.10;91.20;;;;;;4937452;29;20560;-67
2021/06/19 11:06:00;;;;;;;3.33;3.10;;;31.00;91.80;;;;;;4937986;29;20471;-66
2021/06/19 11:08:28;;;;;;;3.63;3.43;;;30.90;92.10;;;;;;4936848;29;20469;-67
2021/06/19 11:10:59;;;;;;;3.23;3.00;;;30.80;92.10;;;;;;4937665;29;20485;-67
2021/06/19 11:13:43;;;;;;;2.97;2.97;;;31.00;92.00;;;;;;4937317;29;20476;-67
2021/06/19 11:16:48;;;;;;;3.30;3.10;;;31.20;91.90;;;;;;4937735;29;20472;-67
2021/06/19 11:19:39;;;;;;;2.93;2.83;;;31.20;91.30;;;;;;4934580;28;20504;-67
2021/06/19 11:22:33;;;;;;;6.53;3.03;;;31.20;91.00;;;;;;4936565;29;20636;-66
2021/06/19 11:25:36;;;;;;;3.00;2.90;;;31.20;90.50;;;;;;4937091;29;20512;-67
2021/06/19 11:28:06;;;;;;;3.57;3.37;;;31.30;90.90;;;;;;4937170;29;20805;-66
2021/06/19 11:30:52;;;;;;;3.00;2.80;;;31.40;91.30;;;;;;4937064;29;21001;-65
2021/06/19 11:33:52;;;;;;;3.10;3.07;;;31.40;91.00;;;;;;4936780;29;20466;-66
2021/06/19 11:36:34;;;;;;;2.83;2.83;;;31.50;90.90;;;;;;4937281;29;20468;-66
2021/06/19 11:39:09;;;;;;;2.73;2.63;;;31.40;90.50;;;;;;4936588;29;20493;-67
2021/06/19 11:41:38;;;;;;;2.70;2.50;;;31.50;90.40;;;;;;4936694;29;20529;-66
2021/06/19 11:44:17;;;;;;;2.47;2.47;;;31.30;90.20;;;;;;4936894;29;20957;-66
2021/06/19 11:46:55;;;;;;;2.50;2.40;;;31.40;89.90;;;;;;4936646;29;20812;-66
2021/06/19 11:49:39;;;;;;;2.80;2.60;;;31.30;89.50;;;;;;4936946;29;20476;-66
2021/06/19 11:52:09;;;;;;;2.80;2.70;;;31.40;89.30;;;;;;4935914;29;20491;-66
2021/06/19 11:54:42;;;;;;;2.30;2.30;;;31.40;89.20;;;;;;4936855;29;20467;-65
2021/06/19 11:57:10;;;;;;;2.47;2.47;;;31.40;89.10;;;;;;4931490;29;20863;-65
2021/06/19 11:59:37;;;;;;;2.83;2.73;;;31.30;89.80;;;;;;4917404;29;20494;-65
2021/06/19 12:02:11;;;;;;;2.40;2.20;;;31.20;90.00;;;;;;4917052;29;20501;-67
2021/06/19 12:04:38;;;;;;;2.40;2.30;;;31.20;87.90;;;;;;4918599;29;20528;-66
2021/06/19 12:07:06;;;;;;;2.50;2.50;;;31.30;89.80;;;;;;4918458;29;20473;-67
2021/06/19 12:09:35;;;;;;;2.67;2.67;;;31.30;89.60;;;;;;4919003;29;20467;-67
2021/06/19 12:12:04;;;;;;;2.10;2.07;;;31.30;90.00;;;;;;4917312;29;20597;-68
2021/06/19 12:14:32;;;;;;;2.43;2.43;;;31.30;90.10;;;;;;4917392;29;20474;-69
2021/06/19 12:17:01;;;;;;;2.90;2.80;;;31.40;90.00;;;;;;4917322;29;20887;-67
2021/06/19 12:19:29;;;;;;;2.87;2.57;;;31.50;90.30;;;;;;4917036;29;20493;-67
2021/06/19 12:21:58;;;;;;;2.50;2.50;;;31.60;90.60;;;;;;4916221;29;20876;-67
2021/06/19 12:24:29;;;;;;;2.30;2.30;;;31.70;90.00;;;;;;4917077;29;20523;-67
2021/06/19 12:27:06;;;;;;;2.10;2.10;;;31.80;89.70;;;;;;4916776;29;20480;-67
2021/06/19 12:29:38;;;;;;;2.80;2.60;;;32.10;87.50;;;;;;4924091;29;20467;-68
2021/06/19 12:32:28;;;;;;;2.53;2.43;;;32.00;86.90;;;;;;4935516;29;20496;-68
2021/06/19 12:34:57;;;;;;;2.67;2.67;;;31.80;86.90;;;;;;4936619;29;20804;-68
2021/06/19 12:37:26;;;;;;;3.47;3.17;;;31.80;88.10;;;;;;4935629;28;20834;-69
2021/06/19 12:39:54;;;;;;;2.70;2.70;;;32.00;87.70;;;;;;4936028;29;20469;-68
2021/06/19 12:42:45;;;;;;;2.37;2.33;;;31.90;86.40;;;;;;4935060;29;20492;-67
2021/06/19 12:45:15;;;;;;;2.60;2.50;;;31.90;87.50;;;;;;4935604;29;20459;-67
2021/06/19 12:47:44;;;;;;;3.13;3.13;;;31.80;87.40;;;;;;4935386;29;20474;-69
2021/06/19 12:50:12;;;;;;;2.90;2.83;;;31.90;87.60;;;;;;4935847;29;20472;-69
2021/06/19 12:52:58;;;;;;;3.00;2.90;;;31.80;87.50;;;;;;4934674;29;20457;-69
2021/06/19 12:55:27;;;;;;;2.37;2.37;;;31.90;87.70;;;;;;4935535;29;20542;-69
2021/06/19 12:58:05;;;;;;;2.43;2.43;;;31.90;87.10;;;;;;4935389;29;21017;-69
2021/06/19 13:00:43;;;;;;;2.30;2.30;;;31.90;85.80;;;;;;4935562;28;20586;-69
2021/06/19 13:03:10;;;;;;;2.80;2.70;;;31.90;86.60;;;;;;4934768;29;20477;-68
2021/06/19 13:05:48;;;;;;;2.60;2.60;;;31.80;87.60;;;;;;4935318;29;20959;-67
2021/06/19 13:08:16;;;;;;;2.83;2.73;;;31.80;86.20;;;;;;4934608;29;20458;-67
2021/06/19 13:10:44;;;;;;;2.63;2.60;;;31.60;86.60;;;;;;4935450;29;20491;-67
2021/06/19 13:13:11;;;;;;;2.20;2.20;;;31.70;87.40;;;;;;4934971;29;20515;-66
2021/06/19 13:15:55;;;;;;;2.97;2.73;;;31.70;88.10;;;;;;4935117;28;20998;-67
2021/06/19 13:18:22;;;;;;;2.80;2.80;;;31.80;87.90;;;;;;4929987;29;20500;-66
2021/06/19 13:20:59;;;;;;;2.60;2.60;;;31.90;86.20;;;;;;4933478;29;20873;-67
2021/06/19 13:23:26;;;;;;;2.67;2.63;;;32.10;86.60;;;;;;4934664;29;20476;-67
2021/06/19 13:26:00;;;;;;;2.47;2.47;;;32.10;86.70;;;;;;4935276;29;20472;-67
2021/06/19 13:28:41;;;;;;;2.53;2.53;;;32.10;86.00;;;;;;4935327;29;20470;-67
2021/06/19 13:31:10;;;;;;;2.97;2.87;;;31.90;85.70;;;;;;4934943;28;20858;-67
2021/06/19 13:33:45;;;;;;;2.67;2.40;;;31.90;86.60;;;;;;4935032;29;20808;-69
2021/06/19 13:36:20;;;;;;;2.23;2.23;;;31.80;86.90;;;;;;4935217;29;20487;-69
2021/06/19 13:39:07;;;;;;;2.27;2.27;;;31.90;81.90;;;;;;4934840;29;20496;-70
2021/06/19 13:41:42;;;;;;;1.80;1.80;;;31.90;79.50;;;;;;4935004;29;20495;-68
2021/06/19 13:44:12;;;;;;;2.13;2.03;;;32.00;78.80;;;;;;4934848;29;21015;-69
2021/06/19 13:46:39;;;;;;;2.13;2.13;;;32.10;80.20;;;;;;4935412;29;20520;-69
2021/06/19 13:49:06;;;;;;;2.03;2.03;;;32.10;77.00;;;;;;4935852;29;20463;-69
2021/06/19 13:51:33;;;;;;;2.27;2.17;;;31.90;75.50;;;;;;4934755;29;20488;-68
2021/06/19 13:54:00;;;;;;;2.40;2.20;;;31.90;76.70;;;;;;4934577;29;20894;-69
2021/06/19 13:56:27;;;;;;;2.20;2.20;;;32.00;80.20;;;;;;4935182;29;20467;-69
2021/06/19 13:58:56;;;;;;;2.67;2.57;;;31.90;81.40;;;;;;4916132;29;20992;-69
2021/06/19 14:01:24;;;;;;;2.57;2.47;;;32.10;81.00;;;;;;4915986;29;20517;-69
2021/06/19 14:03:50;;;;;;;2.53;2.53;;;32.10;81.50;;;;;;4918261;29;20467;-69
2021/06/19 14:06:17;;;;;;;2.60;2.50;;;31.90;81.90;;;;;;4919993;29;20463;-69
2021/06/19 14:08:46;;;;;;;2.50;2.40;;;31.90;82.90;;;;;;4919418;29;20471;-68
2021/06/19 14:11:15;;;;;;;2.80;2.80;;;32.00;82.60;;;;;;4919512;29;20495;-69
2021/06/19 14:13:42;;;;;;;2.33;2.23;;;32.10;83.60;;;;;;4919307;29;20463;-69
2021/06/19 14:16:11;;;;;;;2.60;2.60;;;32.10;80.80;;;;;;4919879;29;20480;-68
2021/06/19 14:18:39;;;;;;;2.63;2.63;;;32.00;81.20;;;;;;4919606;29;20503;-69
2021/06/19 14:21:07;;;;;;;2.97;2.77;;;31.90;82.20;;;;;;4919282;29;20497;-69
2021/06/19 14:23:37;;;;;;;3.53;3.30;;;31.90;82.60;;;;;;4918835;29;20468;-69
2021/06/19 14:26:06;;;;;;;2.97;2.87;;;31.80;82.80;;;;;;4919936;29;20554;-69
2021/06/19 14:28:33;;;;;;;3.10;3.00;;;31.90;82.90;;;;;;4919294;29;20463;-68
2021/06/19 14:31:00;;;;;;;3.10;3.00;;;32.00;82.10;;;;;;4937921;29;20496;-69
2021/06/19 14:33:28;;;;;;;2.77;2.67;;;31.80;81.70;;;;;;4938056;29;20477;-69
2021/06/19 14:35:55;;;;;;;2.30;2.30;;;31.90;81.90;;;;;;4938221;29;20814;-69
2021/06/19 14:38:21;;;;;;;2.50;2.50;;;31.90;81.90;;;;;;4937649;29;20491;-69
2021/06/19 14:40:48;;;;;;;2.77;2.77;;;32.10;81.20;;;;;;4938087;28;20505;-69
2021/06/19 14:43:15;;;;;;;2.73;2.57;;;32.20;80.50;;;;;;4937832;29;20466;-70
2021/06/19 14:45:42;;;;;;;3.10;3.00;;;32.30;80.60;;;;;;4938299;29;20466;-69
2021/06/19 14:48:09;;;;;;;2.40;2.40;;;32.40;79.80;;;;;;4937770;29;20470;-69
2021/06/19 14:50:38;;;;;;;2.53;2.53;;;32.40;80.60;;;;;;4938023;29;20513;-69
2021/06/19 14:53:05;;;;;;;2.60;2.60;;;32.50;79.30;;;;;;4937061;29;20468;-69
2021/06/19 14:55:34;;;;;;;2.50;2.50;;;32.60;77.00;;;;;;4937871;28;20477;-69
2021/06/19 14:58:01;;;;;;;2.40;2.40;;;32.70;77.80;;;;;;4937620;29;20474;-69
2021/06/19 15:00:28;;;;;;;3.50;3.40;;;32.80;77.50;;;;;;4937563;29;20494;-69
2021/06/19 15:02:55;;;;;;;2.90;2.90;;;32.90;79.20;;;;;;4937228;29;20815;-69
2021/06/19 15:05:21;;;;;;;3.10;3.00;;;32.80;79.60;;;;;;4937594;29;20481;-69
2021/06/19 15:07:50;;;;;;;2.30;2.30;;;33.00;78.50;;;;;;4936669;29;20934;-69
2021/06/19 15:10:16;;;;;;;2.63;2.53;;;33.00;78.80;;;;;;4937511;29;20469;-69
2021/06/19 15:12:43;;;;;;;4.33;2.67;;;32.90;79.10;;;;;;4936918;29;20468;-71
2021/06/19 15:15:11;;;;;;;3.27;2.97;;;32.90;80.70;;;;;;4936338;29;20472;-70
2021/06/19 15:17:39;;;;;;;2.50;2.50;;;33.00;79.70;;;;;;4937455;29;20598;-69
2021/06/19 15:20:07;;;;;;;2.40;2.30;;;33.00;76.30;;;;;;4931868;28;21034;-70
2021/06/19 15:22:35;;;;;;;3.00;2.80;;;33.10;74.30;;;;;;4936423;29;20983;-70
2021/06/19 15:25:03;;;;;;;3.07;2.97;;;33.10;75.00;;;;;;4937459;29;20471;-69
2021/06/19 15:27:30;;;;;;;2.70;2.57;;;33.30;76.70;;;;;;4937301;29;20477;-69
2021/06/19 15:29:57;;;;;;;3.30;3.30;;;33.30;76.00;;;;;;4937115;29;20465;-69
2021/06/19 15:32:24;;;;;;;2.70;2.70;;;33.30;76.00;;;;;;4936800;29;20523;-70
2021/06/19 15:34:51;;;;;;;1.70;1.70;;;33.30;73.60;;;;;;4937171;29;20481;-70
2021/06/19 15:37:18;;;;;;;2.10;2.10;;;33.30;73.00;;;;;;4936420;29;20466;-70
2021/06/19 15:39:45;;;;;;;1.83;1.80;;;33.30;72.90;;;;;;4937081;29;20511;-70
2021/06/19 15:42:13;;;;;;;2.30;2.20;;;33.40;72.70;;;;;;4936496;29;20611;-70
2021/06/19 15:44:40;;;;;;;2.20;2.20;;;33.50;71.70;;;;;;4937329;29;21580;-69
2021/06/19 15:47:07;;;;;;;1.60;1.60;;;33.50;70.10;;;;;;4936634;28;20838;-70
2021/06/19 15:49:33;;;;;;;2.30;2.30;;;33.30;68.70;;;;;;4937102;29;20958;-69
2021/06/19 15:52:03;;;;;;;2.07;2.03;;;33.30;69.40;;;;;;4936355;29;20524;-69
2021/06/19 15:54:30;;;;;;;1.57;1.57;;;33.30;70.50;;;;;;4937273;29;20468;-69
2021/06/19 15:56:57;;;;;;;2.20;2.20;;;33.10;69.30;;;;;;4933681;29;20486;-69
2021/06/19 15:59:25;;;;;;;2.10;2.10;;;33.10;69.60;;;;;;4918720;29;20495;-70
2021/06/19 16:01:51;;;;;;;2.10;2.10;;;33.10;70.00;;;;;;4917426;29;20978;-69
2021/06/19 16:04:18;;;;;;;2.43;2.33;;;33.30;70.30;;;;;;4917957;29;20470;-70
2021/06/19 16:06:45;;;;;;;2.00;1.90;;;33.30;69.30;;;;;;4917095;29;20467;-69
2021/06/19 16:09:12;;;;;;;2.20;2.20;;;33.40;68.90;;;;;;4917934;29;20493;-70
2021/06/19 16:11:39;;;;;;;2.00;2.00;;;33.40;69.70;;;;;;4917131;29;20500;-69
2021/06/19 16:14:06;;;;;;;2.00;2.00;;;33.40;70.00;;;;;;4917931;29;20476;-70
2021/06/19 16:16:34;;;;;;;2.00;2.00;;;33.50;69.30;;;;;;4917287;29;20480;-70
2021/06/19 16:19:01;;;;;;;2.00;2.00;;;33.50;69.30;;;;;;4917254;29;21019;-70
2021/06/19 16:21:28;;;;;;;2.10;2.10;;;33.60;69.20;;;;;;4917067;29;20498;-69
2021/06/19 16:23:55;;;;;;;2.00;2.00;;;33.70;68.00;;;;;;4916299;29;20483;-69
2021/06/19 16:26:22;;;;;;;2.00;2.00;;;33.60;66.70;;;;;;4916990;29;20454;-70
2021/06/19 16:28:48;;;;;;;2.27;2.27;;;33.40;66.60;;;;;;4918270;29;21105;-70
2021/06/19 16:31:15;;;;;;;1.80;1.80;;;33.10;67.60;;;;;;4935740;29;20492;-69
2021/06/19 16:33:43;;;;;;;2.30;2.30;;;33.30;68.70;;;;;;4935820;29;20468;-70
2021/06/19 16:36:10;;;;;;;2.00;2.00;;;33.20;68.30;;;;;;4935986;29;20475;-69
2021/06/19 16:38:37;;;;;;;2.00;2.00;;;33.30;68.40;;;;;;4934745;29;20469;-69
2021/06/19 16:41:03;;;;;;;2.50;2.40;;;33.20;69.40;;;;;;4935832;29;20493;-69
2021/06/19 16:43:31;;;;;;;2.60;2.60;;;33.20;69.50;;;;;;4935495;29;20829;-69
2021/06/19 16:45:58;;;;;;;2.90;2.87;;;33.10;69.00;;;;;;4935866;28;20573;-69
2021/06/19 16:48:24;;;;;;;3.00;2.80;;;33.00;70.60;;;;;;4935852;29;20943;-66
2021/06/19 16:50:53;;;;;;;2.27;2.27;;;32.80;69.20;;;;;;4935929;29;20825;-66
2021/06/19 16:53:20;;;;;;;2.70;2.60;;;32.60;71.20;;;;;;4934632;29;20472;-66
2021/06/19 16:55:47;;;;;;;3.17;2.87;;;32.30;72.20;;;;;;4935971;29;20571;-67